Time;durP1;ratioP1;P1;durP2;ratioP2;P2;SDS_P1;SDS_P2;PMS_P1;PMS_P2;Temp;Humidity;BMP_temperature;BMP_pressure;BME280_temperature;BME280_humidity;BME280_pressure;Samples;Min_cycle;Max_cycle;Signal;HPM_P1;HPM_P2
2022/11/28 00:02:09;;;;;;;12.02;8.00;;;6.80;99.90;;;;;;4987962;28;20047;-79
2022/11/28 00:04:34;;;;;;;14.63;8.18;;;7.00;99.90;;;;;;4992312;28;20040;-79
2022/11/28 00:07:00;;;;;;;13.68;8.85;;;6.80;99.90;;;;;;4973176;28;20050;-79
2022/11/28 00:09:26;;;;;;;11.38;8.07;;;7.90;99.90;;;;;;4982781;28;20038;-79
2022/11/28 00:11:51;;;;;;;13.82;8.10;;;7.10;99.90;;;;;;4990319;28;20038;-79
2022/11/28 00:14:18;;;;;;;13.40;8.63;;;7.80;99.90;;;;;;4985878;28;20050;-79
2022/11/28 00:16:44;;;;;;;14.45;8.57;;;6.90;99.90;;;;;;4990676;28;20046;-79
2022/11/28 00:19:11;;;;;;;11.88;8.27;;;8.00;99.90;;;;;;4987983;28;20049;-79
2022/11/28 00:21:37;;;;;;;14.18;7.97;;;6.40;99.90;;;;;;4978071;28;20049;-79
2022/11/28 00:24:04;;;;;;;11.85;7.82;;;7.70;99.90;;;;;;4988682;28;20059;-79
2022/11/28 00:26:35;;;;;;;13.15;7.72;;;6.80;99.90;;;;;;4973190;28;20380;-79
2022/11/28 00:29:02;;;;;;;11.23;7.73;;;6.80;99.90;;;;;;4988072;28;20080;-79
2022/11/28 00:31:34;;;;;;;12.00;7.82;;;6.90;99.90;;;;;;4991804;28;20117;-79
2022/11/28 00:34:00;;;;;;;14.00;7.60;;;7.90;99.90;;;;;;4974883;28;20047;-79
2022/11/28 00:36:28;;;;;;;15.02;8.43;;;6.90;99.90;;;;;;5000587;28;20050;-79
2022/11/28 00:38:54;;;;;;;16.88;8.48;;;7.70;99.90;;;;;;4973198;28;20038;-79
2022/11/28 00:41:22;;;;;;;11.98;7.90;;;6.90;99.90;;;;;;4992972;28;20521;-79
2022/11/28 00:43:49;;;;;;;12.82;8.57;;;6.90;99.90;;;;;;5001672;28;20069;-79
2022/11/28 00:46:16;;;;;;;14.32;8.65;;;7.90;99.90;;;;;;4974955;28;20097;-79
2022/11/28 00:48:41;;;;;;;12.98;8.40;;;7.80;99.90;;;;;;4993050;28;20041;-79
2022/11/28 00:51:15;;;;;;;16.55;8.93;;;6.80;99.90;;;;;;4994286;28;20039;-79
2022/11/28 00:53:43;;;;;;;13.77;9.00;;;6.90;99.90;;;;;;4974976;28;20046;-79
2022/11/28 00:56:11;;;;;;;15.20;8.13;;;7.90;99.90;;;;;;4993996;28;20046;-79
2022/11/28 00:58:37;;;;;;;14.35;8.43;;;6.90;99.90;;;;;;5000145;28;20054;-79
2022/11/28 01:01:15;;;;;;;13.07;8.55;;;7.90;99.90;;;;;;4995131;28;20144;-79
2022/11/28 01:03:41;;;;;;;12.30;8.07;;;6.80;99.90;;;;;;4974424;28;20552;-80
2022/11/28 01:06:08;;;;;;;12.18;8.02;;;7.50;99.90;;;;;;4996851;28;20229;-79
2022/11/28 01:08:35;;;;;;;12.10;8.00;;;6.70;99.90;;;;;;5009059;28;20038;-79
2022/11/28 01:11:01;;;;;;;15.27;8.45;;;6.80;99.90;;;;;;4992172;28;20414;-79
2022/11/28 01:13:27;;;;;;;15.02;8.77;;;6.90;99.90;;;;;;4997636;28;20038;-79
2022/11/28 01:15:53;;;;;;;13.10;7.95;;;7.10;99.90;;;;;;5009828;28;20046;-79
2022/11/28 01:18:18;;;;;;;14.65;8.25;;;7.50;99.90;;;;;;4994177;28;20038;-79
2022/11/28 01:20:44;;;;;;;16.48;8.90;;;6.90;99.90;;;;;;4973698;28;20384;-79
2022/11/28 01:23:10;;;;;;;13.15;8.50;;;6.90;99.90;;;;;;4973029;28;20043;-79
2022/11/28 01:25:35;;;;;;;14.15;8.60;;;6.90;99.90;;;;;;4992205;28;20200;-79
2022/11/28 01:28:01;;;;;;;14.02;8.68;;;7.60;99.90;;;;;;4976552;28;20124;-79
2022/11/28 01:30:27;;;;;;;15.40;8.70;;;6.90;99.90;;;;;;4988079;28;20034;-79
2022/11/28 01:32:52;;;;;;;15.13;8.30;;;7.80;99.90;;;;;;4994833;28;20069;-79
2022/11/28 01:35:18;;;;;;;14.85;8.23;;;8.10;99.90;;;;;;4994068;28;20037;-79
2022/11/28 01:37:44;;;;;;;13.68;8.55;;;6.80;99.90;;;;;;4992550;28;20039;-79
2022/11/28 01:40:13;;;;;;;12.20;8.15;;;8.00;99.90;;;;;;4993009;28;20125;-79
2022/11/28 01:42:39;;;;;;;14.98;8.50;;;6.90;99.90;;;;;;4990287;28;20101;-79
2022/11/28 01:45:21;;;;;;;11.85;8.02;;;6.90;99.90;;;;;;4976906;28;20039;-79
2022/11/28 01:47:48;;;;;;;15.32;8.15;;;7.00;99.90;;;;;;4987317;28;20034;-79
2022/11/28 01:50:14;;;;;;;13.50;8.25;;;7.00;99.90;;;;;;4989785;28;20081;-79
2022/11/28 01:52:43;;;;;;;13.27;8.40;;;7.20;99.90;;;;;;4978653;28;20051;-79
2022/11/28 01:55:12;;;;;;;13.25;8.40;;;7.90;99.90;;;;;;4993385;28;20125;-79
2022/11/28 01:57:38;;;;;;;15.82;8.73;;;7.10;99.90;;;;;;4987244;28;20042;-79
2022/11/28 02:00:15;;;;;;;14.10;7.65;;;8.00;99.90;;;;;;4991594;28;20047;-79
2022/11/28 02:02:49;;;;;;;12.80;7.78;;;7.00;99.90;;;;;;4985284;28;20049;-79
2022/11/28 02:05:16;;;;;;;12.95;8.27;;;7.00;99.90;;;;;;4988455;28;20039;-79
2022/11/28 02:07:43;;;;;;;14.45;8.30;;;7.00;99.90;;;;;;4991466;28;20035;-79
2022/11/28 02:10:14;;;;;;;12.70;7.78;;;7.00;99.90;;;;;;4981016;28;20089;-79
2022/11/28 02:12:58;;;;;;;11.88;7.82;;;7.50;99.90;;;;;;4989679;28;20152;-79
2022/11/28 02:15:49;;;;;;;13.30;8.68;;;7.10;99.90;;;;;;4973276;28;20419;-79
2022/11/28 02:18:20;;;;;;;11.98;7.75;;;7.00;99.90;;;;;;4990199;28;20487;-79
2022/11/28 02:20:54;;;;;;;13.68;8.80;;;7.10;99.90;;;;;;4988644;28;20039;-79
2022/11/28 02:23:36;;;;;;;13.43;8.20;;;7.10;99.90;;;;;;5006863;28;20046;-79
2022/11/28 02:26:09;;;;;;;16.63;8.55;;;7.50;99.90;;;;;;4994239;28;20398;-79
2022/11/28 02:29:21;;;;;;;13.30;7.80;;;8.10;99.90;;;;;;4997606;28;20030;-79
2022/11/28 02:32:23;;;;;;;13.75;8.10;;;7.10;99.90;;;;;;4972582;28;20054;-79
2022/11/28 02:34:56;;;;;;;12.82;8.43;;;7.10;99.90;;;;;;4990587;28;20034;-79
2022/11/28 02:37:40;;;;;;;15.40;8.88;;;7.20;99.90;;;;;;4975676;28;20452;-79
2022/11/28 02:40:31;;;;;;;13.68;8.10;;;7.20;99.90;;;;;;4980618;28;20042;-79
2022/11/28 02:43:07;;;;;;;18.40;9.18;;;7.20;99.90;;;;;;4974563;28;20050;-79
2022/11/28 02:45:41;;;;;;;16.45;8.70;;;7.10;99.90;;;;;;4991179;28;20034;-79
2022/11/28 02:48:13;;;;;;;16.02;9.50;;;7.20;99.90;;;;;;4993274;28;20043;-80
2022/11/28 02:50:46;;;;;;;13.40;9.07;;;7.20;99.90;;;;;;4992805;28;20034;-79
2022/11/28 02:53:17;;;;;;;19.80;9.57;;;7.20;99.90;;;;;;4993557;28;20042;-79
2022/11/28 02:55:43;;;;;;;16.52;9.65;;;8.20;99.90;;;;;;4990317;28;20046;-80
2022/11/28 02:58:10;;;;;;;15.25;9.88;;;8.00;99.90;;;;;;4987016;28;20074;-79
2022/11/28 03:00:38;;;;;;;14.80;9.48;;;7.10;99.90;;;;;;5000363;28;20042;-80
2022/11/28 03:03:26;;;;;;;18.17;9.60;;;7.20;99.90;;;;;;4973116;28;20089;-79
2022/11/28 03:06:00;;;;;;;14.63;10.02;;;7.20;99.90;;;;;;4987753;28;20050;-79
2022/11/28 03:08:26;;;;;;;16.38;10.35;;;7.90;99.90;;;;;;4991770;28;20030;-79
2022/11/28 03:11:18;;;;;;;21.02;10.70;;;7.20;99.90;;;;;;4991261;28;20101;-79
2022/11/28 03:13:55;;;;;;;20.70;10.18;;;7.20;99.90;;;;;;5006966;28;20050;-79
2022/11/28 03:16:27;;;;;;;22.08;11.13;;;8.00;99.90;;;;;;4993055;28;20069;-79
2022/11/28 03:19:01;;;;;;;16.08;10.70;;;7.90;99.90;;;;;;4973473;28;20129;-79
2022/11/28 03:21:36;;;;;;;22.27;11.32;;;7.30;99.90;;;;;;4973213;28;20099;-78
2022/11/28 03:24:40;;;;;;;23.52;11.48;;;7.30;99.90;;;;;;4993857;28;20537;-79
2022/11/28 03:27:18;;;;;;;18.30;11.20;;;7.30;99.90;;;;;;4969205;28;20054;-80
2022/11/28 03:29:55;;;;;;;16.20;10.70;;;7.30;99.90;;;;;;4987935;28;20077;-80
2022/11/28 03:32:28;;;;;;;19.77;11.43;;;6.70;99.90;;;;;;4993167;28;20053;-79
2022/11/28 03:35:01;;;;;;;18.65;11.07;;;7.40;99.90;;;;;;4976227;28;20410;-80
2022/11/28 03:37:31;;;;;;;18.65;11.27;;;7.40;99.90;;;;;;4987925;28;20403;-79
2022/11/28 03:40:00;;;;;;;18.35;11.77;;;8.30;99.90;;;;;;4988784;28;20042;-79
2022/11/28 03:42:30;;;;;;;23.45;12.05;;;8.50;99.90;;;;;;4987424;28;20049;-79
2022/11/28 03:45:14;;;;;;;16.48;11.30;;;8.30;99.90;;;;;;4997597;28;20045;-79
2022/11/28 03:47:46;;;;;;;17.67;11.93;;;7.40;99.90;;;;;;4986042;28;20026;-79
2022/11/28 03:50:18;;;;;;;19.52;12.23;;;7.40;99.90;;;;;;4992137;28;20063;-78
2022/11/28 03:52:58;;;;;;;21.25;12.25;;;8.00;99.90;;;;;;4993413;28;20395;-79
2022/11/28 03:55:36;;;;;;;22.17;12.23;;;8.50;99.90;;;;;;4992499;28;20042;-79
2022/11/28 03:58:10;;;;;;;20.13;12.48;;;7.40;99.90;;;;;;4993389;28;20038;-79
2022/11/28 04:00:43;;;;;;;20.17;12.25;;;7.10;99.90;;;;;;4994306;28;20415;-79
2022/11/28 04:03:20;;;;;;;;;;;8.60;99.90;;;;;;4976175;28;20073;-78
2022/11/28 04:06:18;;;;;;;21.92;12.20;;;7.50;99.90;;;;;;4993618;28;19941;-79
2022/11/28 04:08:51;;;;;;;20.83;12.93;;;7.50;99.90;;;;;;4985978;28;20053;-79
2022/11/28 04:11:28;;;;;;;20.75;12.20;;;8.30;99.90;;;;;;4992403;28;20034;-79
2022/11/28 04:14:04;;;;;;;19.00;12.68;;;7.40;99.90;;;;;;4993282;28;20042;-79
2022/11/28 04:16:36;;;;;;;21.70;12.82;;;8.60;99.90;;;;;;4992372;28;20077;-79
2022/11/28 04:19:04;;;;;;;21.80;12.55;;;7.50;99.90;;;;;;4992813;28;20053;-79
2022/11/28 04:21:43;;;;;;;19.17;12.60;;;8.50;99.90;;;;;;4994009;28;20038;-79
2022/11/28 04:24:23;;;;;;;20.42;12.63;;;7.50;99.90;;;;;;4979743;28;20042;-79
2022/11/28 04:26:56;;;;;;;19.52;12.43;;;8.60;99.90;;;;;;4996646;28;20034;-79
2022/11/28 04:29:24;;;;;;;18.75;13.05;;;7.50;99.90;;;;;;4997423;28;20038;-78
2022/11/28 04:31:54;;;;;;;24.05;14.55;;;8.70;99.90;;;;;;4994531;28;20391;-79
2022/11/28 04:34:23;;;;;;;21.58;14.10;;;7.60;99.90;;;;;;4976611;28;20101;-79
2022/11/28 04:36:52;;;;;;;17.80;12.52;;;7.60;99.90;;;;;;4997004;28;20070;-79
2022/11/28 04:39:22;;;;;;;25.90;14.82;;;7.60;99.90;;;;;;4997574;28;20128;-79
2022/11/28 04:41:52;;;;;;;25.95;15.18;;;8.50;99.90;;;;;;4996806;28;20035;-80
2022/11/28 04:44:40;;;;;;;19.90;13.93;;;8.50;99.90;;;;;;4994339;28;20142;-79
2022/11/28 04:47:06;;;;;;;21.10;15.20;;;7.60;99.90;;;;;;5004983;28;20074;-79
2022/11/28 04:49:32;;;;;;;20.45;14.32;;;7.60;99.90;;;;;;4993801;28;20043;-79
2022/11/28 04:52:08;;;;;;;20.13;14.07;;;7.60;99.90;;;;;;4997396;28;20038;-79
2022/11/28 04:54:52;;;;;;;21.92;14.68;;;7.60;99.90;;;;;;4995888;28;20074;-78
2022/11/28 04:57:43;;;;;;;20.13;13.60;;;7.60;99.90;;;;;;4976553;28;20074;-78
2022/11/28 05:00:12;;;;;;;21.15;13.10;;;7.50;99.90;;;;;;4989019;28;20124;-78
2022/11/28 05:02:40;;;;;;;18.48;12.70;;;7.60;99.90;;;;;;4971408;28;20112;-77
2022/11/28 05:05:10;;;;;;;17.95;12.52;;;8.70;99.90;;;;;;4995336;28;20035;-79
2022/11/28 05:07:35;;;;;;;18.33;12.23;;;7.10;99.90;;;;;;4996648;28;20034;-78
2022/11/28 05:10:01;;;;;;;17.45;11.65;;;7.60;99.90;;;;;;5009552;28;20092;-79
2022/11/28 05:12:27;;;;;;;20.75;12.23;;;8.70;99.90;;;;;;4986003;28;20035;-78
2022/11/28 05:14:52;;;;;;;19.52;11.50;;;7.60;99.90;;;;;;4986953;28;20043;-78
2022/11/28 05:17:18;;;;;;;14.60;10.70;;;7.10;99.90;;;;;;4966668;28;20038;-77
2022/11/28 05:19:44;;;;;;;17.90;11.25;;;8.10;99.90;;;;;;4979229;28;20077;-78
2022/11/28 05:22:09;;;;;;;19.15;11.00;;;8.00;99.90;;;;;;4973739;28;20392;-77
2022/11/28 05:24:35;;;;;;;18.20;11.25;;;7.70;99.90;;;;;;4993471;28;20098;-77
2022/11/28 05:27:01;;;;;;;16.42;12.27;;;7.70;99.90;;;;;;4993089;28;20046;-77
2022/11/28 05:29:27;;;;;;;17.17;11.55;;;7.70;99.90;;;;;;4991660;28;20049;-77
2022/11/28 05:31:53;;;;;;;18.10;12.32;;;7.70;99.90;;;;;;4994859;28;20121;-77
2022/11/28 05:34:18;;;;;;;16.55;12.15;;;7.70;99.90;;;;;;4978837;28;20050;-78
2022/11/28 05:36:44;;;;;;;16.50;11.90;;;7.70;99.90;;;;;;5013111;28;20046;-77
2022/11/28 05:39:09;;;;;;;18.20;12.10;;;8.40;99.90;;;;;;4988866;28;20574;-77
2022/11/28 05:41:35;;;;;;;20.35;13.23;;;7.90;99.90;;;;;;4976174;28;20042;-77
2022/11/28 05:44:01;;;;;;;18.30;12.80;;;7.80;99.90;;;;;;4973224;28;20039;-78
2022/11/28 05:46:28;;;;;;;21.40;13.35;;;7.70;99.90;;;;;;4987145;28;20034;-77
2022/11/28 05:48:56;;;;;;;19.15;13.23;;;7.70;99.90;;;;;;4990855;28;20096;-78
2022/11/28 05:51:22;;;;;;;21.02;13.32;;;7.90;99.90;;;;;;4989119;28;20469;-77
2022/11/28 05:53:48;;;;;;;21.60;13.88;;;7.80;99.90;;;;;;4987462;28;20475;-77
2022/11/28 05:56:16;;;;;;;23.48;14.57;;;8.10;99.90;;;;;;4991321;28;20092;-77
2022/11/28 05:58:42;;;;;;;18.02;13.15;;;7.80;99.90;;;;;;4990045;28;20038;-78
2022/11/28 06:01:18;;;;;;;18.85;13.43;;;8.70;99.90;;;;;;5007163;28;20398;-77
2022/11/28 06:03:44;;;;;;;19.83;13.20;;;7.70;99.90;;;;;;4985430;28;20038;-78
2022/11/28 06:06:31;;;;;;;19.95;14.10;;;7.70;99.90;;;;;;4991940;28;20393;-78
2022/11/28 06:08:57;;;;;;;19.35;12.90;;;7.70;99.90;;;;;;4976103;28;20129;-78
2022/11/28 06:11:25;;;;;;;19.15;12.55;;;8.10;99.90;;;;;;4969297;28;20077;-78
2022/11/28 06:13:51;;;;;;;22.08;13.73;;;7.80;99.90;;;;;;4967020;28;20045;-78
2022/11/28 06:16:19;;;;;;;18.65;13.60;;;8.40;99.90;;;;;;4971774;28;20170;-78
2022/11/28 06:18:45;;;;;;;19.35;12.73;;;7.80;99.90;;;;;;4968544;28;20391;-77
2022/11/28 06:21:12;;;;;;;22.48;14.15;;;7.70;99.90;;;;;;4976605;28;20041;-77
2022/11/28 06:23:38;;;;;;;18.70;12.75;;;8.20;99.90;;;;;;4986224;28;20039;-78
2022/11/28 06:26:06;;;;;;;18.27;13.27;;;7.80;99.90;;;;;;4974837;28;20043;-78
2022/11/28 06:28:32;;;;;;;18.25;12.93;;;8.60;99.90;;;;;;4974984;28;20038;-78
2022/11/28 06:30:58;;;;;;;21.00;12.93;;;7.80;99.90;;;;;;4975933;28;20093;-78
2022/11/28 06:33:24;;;;;;;20.50;13.20;;;7.80;99.90;;;;;;4993462;28;20071;-78
2022/11/28 06:35:50;;;;;;;19.67;13.10;;;8.50;99.90;;;;;;4973223;28;20043;-78
2022/11/28 06:38:15;;;;;;;18.10;12.63;;;7.80;99.90;;;;;;4972876;28;20469;-77
2022/11/28 06:40:41;;;;;;;18.45;12.15;;;7.90;99.90;;;;;;4991877;28;20897;-78
2022/11/28 06:43:06;;;;;;;15.15;11.23;;;8.70;99.90;;;;;;4971784;28;20047;-78
2022/11/28 06:45:33;;;;;;;18.50;12.13;;;8.00;99.90;;;;;;4993364;28;20313;-79
2022/11/28 06:48:00;;;;;;;16.83;10.93;;;7.80;99.90;;;;;;4975618;28;20046;-78
2022/11/28 06:50:26;;;;;;;14.85;10.30;;;7.80;99.90;;;;;;4977115;28;20045;-78
2022/11/28 06:52:54;;;;;;;16.23;10.95;;;7.80;99.90;;;;;;4992543;28;20096;-78
2022/11/28 06:55:22;;;;;;;17.27;10.70;;;7.80;99.90;;;;;;4975906;28;20044;-79
2022/11/28 06:57:48;;;;;;;15.23;10.45;;;7.80;99.90;;;;;;4975458;28;20039;-78
2022/11/28 07:00:14;;;;;;;15.02;10.20;;;8.80;99.90;;;;;;4990424;28;20446;-77
2022/11/28 07:02:39;;;;;;;15.60;10.35;;;7.80;99.90;;;;;;4978939;28;20043;-78
2022/11/28 07:05:06;;;;;;;14.80;9.98;;;8.00;99.90;;;;;;4975523;28;20106;-78
2022/11/28 07:07:31;;;;;;;16.00;9.88;;;7.80;99.90;;;;;;4973942;28;20088;-77
2022/11/28 07:09:57;;;;;;;13.05;9.35;;;7.80;99.90;;;;;;4992299;28;20451;-78
2022/11/28 07:12:22;;;;;;;13.07;8.95;;;7.80;99.90;;;;;;4989232;28;20038;-78
2022/11/28 07:14:48;;;;;;;12.85;9.45;;;8.00;99.90;;;;;;4977303;28;20042;-78
2022/11/28 07:17:14;;;;;;;14.20;9.63;;;7.80;99.90;;;;;;4993574;28;20038;-78
2022/11/28 07:19:40;;;;;;;14.45;9.73;;;8.60;99.90;;;;;;4977256;28;20034;-78
2022/11/28 07:22:06;;;;;;;15.98;9.95;;;8.30;99.90;;;;;;4998010;28;20073;-78
2022/11/28 07:24:31;;;;;;;13.18;9.20;;;7.90;99.90;;;;;;4990363;28;20038;-77
2022/11/28 07:26:57;;;;;;;14.75;9.75;;;7.80;99.90;;;;;;4989706;28;20062;-75
2022/11/28 07:29:23;;;;;;;13.20;9.52;;;7.90;99.90;;;;;;4990038;28;20038;-77
2022/11/28 07:31:49;;;;;;;14.02;9.27;;;7.90;99.90;;;;;;4990845;28;20064;-77
2022/11/28 07:34:15;;;;;;;12.73;9.18;;;7.90;99.90;;;;;;4990572;28;20038;-77
2022/11/28 07:36:43;;;;;;;13.82;9.02;;;7.90;99.90;;;;;;4990571;28;20061;-78
2022/11/28 07:39:14;;;;;;;13.07;8.85;;;7.80;99.90;;;;;;4970201;28;20049;-77
2022/11/28 07:41:40;;;;;;;14.77;9.40;;;7.80;99.90;;;;;;4973878;28;20041;-77
2022/11/28 07:44:06;;;;;;;14.90;9.13;;;8.10;99.90;;;;;;4992917;28;20046;-78
2022/11/28 07:46:32;;;;;;;13.00;9.38;;;7.80;99.90;;;;;;4992902;28;20045;-77
2022/11/28 07:48:59;;;;;;;16.58;9.55;;;7.80;99.90;;;;;;4991032;28;20498;-77
2022/11/28 07:51:27;;;;;;;14.15;9.02;;;8.80;99.90;;;;;;4975149;28;20094;-77
2022/11/28 07:53:54;;;;;;;12.43;8.63;;;7.80;99.90;;;;;;4992014;28;20049;-78
2022/11/28 07:56:23;;;;;;;13.10;8.93;;;8.40;99.90;;;;;;4988629;28;20046;-77
2022/11/28 07:58:49;;;;;;;11.75;8.70;;;7.80;99.90;;;;;;4991787;28;20046;-78
2022/11/28 08:01:21;;;;;;;13.07;9.10;;;8.10;99.90;;;;;;4990717;28;20474;-77
2022/11/28 08:03:47;;;;;;;11.07;8.38;;;7.90;99.90;;;;;;4976573;28;20508;-77
2022/11/28 08:06:18;;;;;;;12.27;8.98;;;7.90;99.90;;;;;;4972122;28;20046;-77
2022/11/28 08:08:45;;;;;;;13.75;9.27;;;7.90;99.90;;;;;;4987244;28;20049;-78
2022/11/28 08:11:12;;;;;;;12.48;9.10;;;8.80;99.90;;;;;;4992882;28;20104;-77
2022/11/28 08:13:39;;;;;;;11.80;8.88;;;7.90;99.90;;;;;;4985273;28;20554;-78
2022/11/28 08:16:07;;;;;;;12.95;9.18;;;8.30;99.90;;;;;;4992476;28;20042;-78
2022/11/28 08:18:34;;;;;;;14.52;9.25;;;7.90;99.90;;;;;;4993317;28;20046;-79
2022/11/28 08:21:07;;;;;;;12.88;9.30;;;8.20;99.90;;;;;;4989260;28;20062;-79
2022/11/28 08:23:34;;;;;;;11.77;8.00;;;8.30;99.90;;;;;;4992036;28;20039;-79
2022/11/28 08:26:05;;;;;;;12.65;8.68;;;8.70;99.90;;;;;;4993488;28;20537;-79
2022/11/28 08:28:31;;;;;;;11.98;8.52;;;8.00;99.90;;;;;;4991643;28;20030;-79
2022/11/28 08:31:00;;;;;;;11.65;8.88;;;7.90;99.90;;;;;;4987928;28;20118;-79
2022/11/28 08:33:25;;;;;;;14.82;9.57;;;8.70;99.90;;;;;;4986776;28;20122;-79
2022/11/28 08:35:51;;;;;;;14.38;8.95;;;8.70;99.90;;;;;;4971325;28;20078;-77
2022/11/28 08:38:17;;;;;;;12.90;8.95;;;7.90;99.90;;;;;;4990540;28;20089;-77
2022/11/28 08:40:43;;;;;;;12.95;9.07;;;8.40;99.90;;;;;;4991386;28;20045;-77
2022/11/28 08:43:08;;;;;;;14.60;9.38;;;7.90;99.90;;;;;;4991244;28;20050;-77
2022/11/28 08:45:37;;;;;;;12.63;8.60;;;7.90;99.90;;;;;;4991888;28;20581;-78
2022/11/28 08:48:04;;;;;;;12.45;8.90;;;8.80;99.90;;;;;;4973610;28;20063;-79
2022/11/28 08:50:29;;;;;;;14.60;9.82;;;8.00;99.90;;;;;;4972314;28;20114;-77
2022/11/28 08:52:55;;;;;;;13.77;9.68;;;7.90;99.90;;;;;;4989668;28;20046;-78
2022/11/28 08:55:21;;;;;;;13.95;9.27;;;7.90;99.90;;;;;;4989485;28;20064;-79
2022/11/28 08:57:46;;;;;;;14.35;9.57;;;8.00;99.90;;;;;;4974316;28;20050;-79
2022/11/28 09:00:13;;;;;;;12.13;9.10;;;8.30;99.90;;;;;;4990237;28;20057;-78
2022/11/28 09:02:38;;;;;;;14.52;9.65;;;8.00;99.90;;;;;;4991035;28;20190;-77
2022/11/28 09:05:04;;;;;;;13.75;8.95;;;8.00;99.90;;;;;;4989806;28;20151;-78
2022/11/28 09:07:30;;;;;;;13.05;9.40;;;8.00;99.90;;;;;;4985507;28;20046;-78
2022/11/28 09:09:56;;;;;;;13.23;9.60;;;8.00;99.90;;;;;;4991090;28;20042;-78
2022/11/28 09:12:22;;;;;;;13.18;9.25;;;8.00;99.90;;;;;;4993107;28;20045;-78
2022/11/28 09:14:47;;;;;;;13.48;9.25;;;8.00;99.90;;;;;;4994832;28;20041;-78
2022/11/28 09:17:16;;;;;;;14.35;9.50;;;8.00;99.90;;;;;;4976867;28;20108;-77
2022/11/28 09:19:42;;;;;;;14.98;10.00;;;8.00;99.90;;;;;;4989816;28;20074;-78
2022/11/28 09:22:07;;;;;;;12.43;9.07;;;8.00;99.90;;;;;;4987526;28;20112;-77
2022/11/28 09:24:33;;;;;;;14.40;9.43;;;8.00;99.90;;;;;;4994410;28;20174;-78
2022/11/28 09:26:59;;;;;;;12.43;9.05;;;8.00;99.90;;;;;;4994654;28;20125;-77
2022/11/28 09:29:27;;;;;;;11.70;8.85;;;8.10;99.90;;;;;;4974775;28;20097;-77
2022/11/28 09:31:52;;;;;;;12.88;8.95;;;8.10;99.90;;;;;;4971095;28;20035;-77
2022/11/28 09:34:18;;;;;;;11.60;8.50;;;8.10;99.90;;;;;;4973995;28;20050;-77
2022/11/28 09:36:44;;;;;;;15.70;9.02;;;8.10;99.90;;;;;;4992557;28;20380;-77
2022/11/28 09:39:10;;;;;;;14.70;9.15;;;8.10;99.90;;;;;;4976402;28;20049;-78
2022/11/28 09:41:48;;;;;;;12.98;9.30;;;8.10;99.90;;;;;;4993923;28;20034;-79
2022/11/28 09:44:22;;;;;;;14.95;9.07;;;8.10;99.90;;;;;;4994573;28;20486;-76
2022/11/28 09:46:52;;;;;;;12.18;8.50;;;8.10;99.90;;;;;;4990012;28;20042;-76
2022/11/28 09:49:22;;;;;;;12.85;8.70;;;8.10;99.90;;;;;;4992468;28;20038;-78
2022/11/28 09:51:51;;;;;;;13.05;9.02;;;8.10;99.90;;;;;;4976708;28;20066;-79
2022/11/28 09:54:35;;;;;;;13.15;8.48;;;8.10;99.90;;;;;;4975078;28;20050;-78
2022/11/28 09:57:07;;;;;;;12.10;8.57;;;8.10;99.90;;;;;;4976791;28;20042;-79
2022/11/28 09:59:34;;;;;;;10.80;8.07;;;8.90;99.90;;;;;;4993374;28;20061;-78
2022/11/28 10:02:35;;;;;;;14.43;8.65;;;8.10;99.90;;;;;;4974773;28;20068;-78
2022/11/28 10:05:29;;;;;;;13.48;8.55;;;8.20;99.90;;;;;;4977413;28;20210;-79
2022/11/28 10:08:34;;;;;;;12.65;8.30;;;8.20;99.90;;;;;;4981295;28;20073;-77
2022/11/28 10:11:09;;;;;;;12.07;7.93;;;8.20;99.90;;;;;;4998845;28;20402;-78
2022/11/28 10:14:08;;;;;;;12.25;8.20;;;8.20;99.90;;;;;;4976067;28;20042;-79
2022/11/28 10:16:53;;;;;;;10.82;7.45;;;8.20;99.90;;;;;;4984435;28;20412;-78
2022/11/28 10:19:35;;;;;;;11.50;7.65;;;8.30;99.90;;;;;;4993698;28;20049;-79
2022/11/28 10:22:06;;;;;;;11.93;8.50;;;8.30;99.90;;;;;;4989235;28;20038;-79
2022/11/28 10:24:54;;;;;;;11.15;7.95;;;8.30;99.90;;;;;;4992391;28;20053;-77
2022/11/28 10:27:22;;;;;;;11.43;8.02;;;8.30;99.90;;;;;;4991501;28;20049;-78
2022/11/28 10:30:03;;;;;;;10.48;7.32;;;8.30;99.90;;;;;;4991004;28;20093;-78
2022/11/28 10:32:40;;;;;;;11.85;7.93;;;8.40;99.90;;;;;;4992576;28;20085;-78
2022/11/28 10:35:45;;;;;;;10.60;7.20;;;8.40;99.90;;;;;;4992285;28;20101;-78
2022/11/28 10:38:13;;;;;;;10.25;7.25;;;8.40;99.90;;;;;;4970055;28;20052;-79
2022/11/28 10:40:45;;;;;;;10.63;7.85;;;8.40;99.90;;;;;;4993372;28;20046;-79
2022/11/28 10:43:49;;;;;;;10.00;7.20;;;8.40;99.90;;;;;;4977563;28;20042;-78
2022/11/28 10:46:44;;;;;;;10.20;6.95;;;8.40;99.90;;;;;;4991959;28;20046;-79
2022/11/28 10:49:27;;;;;;;10.73;7.28;;;8.50;99.90;;;;;;4988257;28;20046;-79
2022/11/28 10:51:52;;;;;;;;;;;8.50;99.90;;;;;;4989910;28;20046;-79
2022/11/28 10:54:50;;;;;;;9.60;6.80;;;8.50;99.90;;;;;;4992857;28;19917;-79
2022/11/28 10:57:23;;;;;;;10.63;6.85;;;8.50;99.90;;;;;;4975438;28;20156;-78
2022/11/28 11:00:12;;;;;;;9.35;6.68;;;8.50;99.90;;;;;;4974066;28;20483;-79
2022/11/28 11:02:56;;;;;;;9.93;7.20;;;8.50;99.90;;;;;;4992033;28;20494;-78
2022/11/28 11:05:28;;;;;;;13.40;7.28;;;8.50;99.90;;;;;;4991487;28;20125;-78
2022/11/28 11:07:57;;;;;;;9.93;6.60;;;8.50;99.90;;;;;;4992494;28;20451;-78
2022/11/28 11:10:36;;;;;;;12.07;7.25;;;8.50;99.90;;;;;;4991364;28;20042;-78
2022/11/28 11:13:10;;;;;;;9.68;7.07;;;8.50;99.90;;;;;;4984210;28;20105;-78
2022/11/28 11:15:36;;;;;;;10.38;7.55;;;8.60;99.90;;;;;;4975666;28;20499;-79
2022/11/28 11:18:18;;;;;;;11.05;6.95;;;8.60;99.90;;;;;;4992574;28;20109;-78
2022/11/28 11:20:44;;;;;;;10.57;7.45;;;8.60;99.90;;;;;;4987065;28;20073;-78
2022/11/28 11:23:19;;;;;;;9.52;7.00;;;9.50;99.90;;;;;;4989569;28;20042;-78
2022/11/28 11:25:49;;;;;;;11.35;7.80;;;8.80;99.90;;;;;;4975795;28;20050;-80
2022/11/28 11:28:38;;;;;;;11.00;7.32;;;9.50;99.90;;;;;;4969131;28;20041;-77
2022/11/28 11:31:34;;;;;;;10.52;6.97;;;8.60;99.90;;;;;;4976103;28;20439;-77
2022/11/28 11:34:21;;;;;;;9.80;7.10;;;8.60;99.90;;;;;;4978426;28;20098;-74
2022/11/28 11:36:47;;;;;;;9.95;7.28;;;8.60;99.90;;;;;;4992096;28;20038;-74
2022/11/28 11:39:17;;;;;;;10.95;7.15;;;8.60;99.90;;;;;;4992473;28;20088;-77
2022/11/28 11:42:10;;;;;;;11.52;7.13;;;8.60;99.90;;;;;;4972176;28;20042;-79
2022/11/28 11:44:36;;;;;;;10.80;7.63;;;8.60;99.90;;;;;;4975218;28;20041;-78
2022/11/28 11:47:09;;;;;;;10.80;6.50;;;8.60;99.90;;;;;;4973107;28;20045;-78
2022/11/28 11:49:36;;;;;;;10.02;7.13;;;8.70;99.90;;;;;;4973766;28;20125;-78
2022/11/28 11:52:05;;;;;;;10.55;7.40;;;9.30;99.90;;;;;;4972294;28;20108;-78
2022/11/28 11:54:31;;;;;;;11.05;6.97;;;8.70;99.90;;;;;;4974214;28;20058;-78
2022/11/28 11:56:58;;;;;;;9.65;6.72;;;8.70;99.90;;;;;;4970849;28;20043;-77
2022/11/28 11:59:47;;;;;;;10.55;7.28;;;9.60;99.90;;;;;;4972152;28;20048;-77
2022/11/28 12:02:25;;;;;;;10.90;7.60;;;8.70;99.90;;;;;;4971464;28;20043;-79
2022/11/28 12:05:06;;;;;;;10.57;7.85;;;8.70;99.90;;;;;;4979013;28;20051;-79
2022/11/28 12:08:00;;;;;;;10.00;7.05;;;8.70;99.90;;;;;;4962151;28;20196;-79
2022/11/28 12:10:31;;;;;;;10.50;7.38;;;8.70;99.90;;;;;;4973327;28;20469;-80
2022/11/28 12:13:01;;;;;;;10.13;7.38;;;8.70;99.90;;;;;;4973690;28;20034;-79
2022/11/28 12:15:49;;;;;;;11.10;7.82;;;8.70;99.90;;;;;;4991649;28;20038;-79
2022/11/28 12:18:45;;;;;;;10.82;7.53;;;8.70;99.90;;;;;;4972561;28;20596;-79
2022/11/28 12:21:44;;;;;;;11.98;8.57;;;8.70;99.90;;;;;;4969987;28;20372;-79
2022/11/28 12:24:19;;;;;;;11.23;7.85;;;8.70;99.90;;;;;;4976348;28;20034;-80
2022/11/28 12:27:07;;;;;;;10.70;7.68;;;8.80;99.90;;;;;;4974133;28;20077;-80
2022/11/28 12:30:01;;;;;;;11.40;8.15;;;8.80;99.90;;;;;;4975462;28;20034;-79
2022/11/28 12:32:55;;;;;;;11.80;7.60;;;8.80;99.90;;;;;;4975420;28;20042;-80
2022/11/28 12:35:41;;;;;;;10.20;7.72;;;8.80;99.90;;;;;;4977208;28;20046;-80
2022/11/28 12:38:48;;;;;;;11.40;7.93;;;8.80;99.90;;;;;;4949596;28;20057;-79
2022/11/28 12:41:40;;;;;;;10.85;8.10;;;8.80;99.90;;;;;;4970787;28;20308;-79
2022/11/28 12:48:26;;;;;;;12.35;8.50;;;8.70;99.90;;;;;;4995058;28;20037;-79
2022/11/28 12:55:37;;;;;;;11.82;8.05;;;8.80;99.90;;;;;;4992038;28;20085;-79
2022/11/28 12:58:56;;;;;;;12.23;8.35;;;8.80;99.90;;;;;;4985809;28;20043;-80
2022/11/28 13:06:22;;;;;;;14.75;8.82;;;8.80;99.90;;;;;;4993551;28;20038;-79
2022/11/28 13:10:07;;;;;;;13.13;8.40;;;8.80;99.90;;;;;;4957397;28;20046;-79
2022/11/28 13:21:21;;;;;;;13.65;8.90;;;8.80;99.90;;;;;;4867641;29;20041;-80
2022/11/28 13:23:57;;;;;;;14.60;9.48;;;8.80;99.90;;;;;;4917977;29;20063;-79
2022/11/28 13:27:09;;;;;;;13.88;9.13;;;8.80;99.90;;;;;;4929487;29;20077;-80
2022/11/28 13:29:49;;;;;;;13.43;9.13;;;8.80;99.90;;;;;;4933883;29;20044;-77
2022/11/28 13:32:44;;;;;;;13.25;9.27;;;8.80;99.90;;;;;;4934190;29;20138;-78
2022/11/28 13:35:14;;;;;;;13.73;9.40;;;8.80;99.90;;;;;;4951692;28;20054;-77
2022/11/28 13:38:08;;;;;;;14.07;9.68;;;8.80;99.90;;;;;;4982950;28;20042;-78